Time;durP1;ratioP1;P1;durP2;ratioP2;P2;SDS_P1;SDS_P2;PMS_P1;PMS_P2;Temp;Humidity;BMP_temperature;BMP_pressure;BME280_temperature;BME280_humidity;BME280_pressure;Samples;Min_cycle;Max_cycle;Signal;HPM_P1;HPM_P2
2024/04/05 00:01:09;;;;;;;3.80;2.10;;;;;;;;;;6016883;23;20420;-88
2024/04/05 00:07:25;;;;;;;6.83;2.50;;;;;;;;;;5962039;24;20393;-89
2024/04/05 00:10:51;;;;;;;5.20;2.30;;;;;;;;;;5960636;23;20393;-87
2024/04/05 00:17:03;;;;;;;4.87;2.30;;;;;;;;;;6049249;23;20454;-86
2024/04/05 00:20:18;;;;;;;3.60;2.40;;;;;;;;;;6024550;23;20435;-88
2024/04/05 00:22:51;;;;;;;6.17;2.37;;;;;;;;;;6023401;23;20442;-87
2024/04/05 00:28:45;;;;;;;4.00;2.13;;;;;;;;;;6000183;23;20418;-88
2024/04/05 00:31:40;;;;;;;6.10;2.67;;;;;;;;;;6027823;23;20426;-89
2024/04/05 00:37:16;;;;;;;4.50;1.90;;;;;;;;;;6004810;23;20765;-87
2024/04/05 00:39:46;;;;;;;3.80;2.07;;;;;;;;;;6099655;23;20401;-88
2024/04/05 00:42:38;;;;;;;;;;;;;;;;;;;;;
2024/04/05 00:45:25;;;;;;;2.87;1.60;;;;;;;;;;6139670;23;20408;-88
2024/04/05 00:48:09;;;;;;;6.00;2.33;;;;;;;;;;6107666;23;20397;-88
2024/04/05 00:50:42;;;;;;;2.67;1.50;;;;;;;;;;6104032;23;20424;-91
2024/04/05 00:53:16;;;;;;;2.20;1.60;;;;;;;;;;6130755;23;20404;-87
2024/04/05 00:55:51;;;;;;;7.30;1.63;;;;;;;;;;6099579;23;20404;-87
2024/04/05 00:58:20;;;;;;;5.60;1.80;;;;;;;;;;6106303;23;20405;-87
2024/04/05 01:00:56;;;;;;;3.23;1.63;;;;;;;;;;6106897;23;20747;-87
2024/04/05 01:03:57;;;;;;;4.80;2.10;;;;;;;;;;6104321;23;20401;-87
2024/04/05 01:10:10;;;;;;;3.07;1.93;;;;;;;;;;6108262;23;20415;-89
2024/04/05 01:12:50;;;;;;;5.27;2.53;;;;;;;;;;6125961;23;20409;-88
2024/04/05 01:15:17;;;;;;;7.20;2.30;;;;;;;;;;6129752;23;20396;-88
2024/04/05 01:18:12;;;;;;;6.03;2.27;;;;;;;;;;6124759;23;20894;-89
2024/04/05 01:20:50;;;;;;;4.33;2.10;;;;;;;;;;6118419;23;20450;-88
2024/04/05 01:23:40;;;;;;;3.50;1.70;;;;;;;;;;6174644;23;20446;-87
2024/04/05 01:26:13;;;;;;;7.10;2.30;;;;;;;;;;6151730;23;20450;-86
2024/04/05 01:31:52;;;;;;;5.60;2.17;;;;;;;;;;6129332;23;20418;-87
2024/04/05 01:34:25;;;;;;;4.83;2.37;;;;;;;;;;6146565;23;20409;-88
2024/04/05 01:37:16;;;;;;;5.30;2.00;;;;;;;;;;6175892;23;20504;-87
2024/04/05 01:40:26;;;;;;;3.27;2.10;;;;;;;;;;6146968;23;20470;-89
2024/04/05 01:43:15;;;;;;;5.17;2.60;;;;;;;;;;6143150;23;20446;-88
2024/04/05 01:45:46;;;;;;;7.63;2.70;;;;;;;;;;6138439;23;20407;-87
2024/04/05 01:48:57;;;;;;;3.80;2.20;;;;;;;;;;6144460;23;20406;-87
2024/04/05 01:54:44;;;;;;;7.50;2.30;;;;;;;;;;6166699;23;20402;-87
2024/04/05 01:57:41;;;;;;;5.20;2.20;;;;;;;;;;6175471;23;20415;-87
2024/04/05 02:00:24;;;;;;;;;;;;;;;;;;;;;
2024/04/05 02:03:15;;;;;;;4.80;1.90;;;;;;;;;;6165723;23;20449;-87
2024/04/05 02:05:46;;;;;;;4.20;2.10;;;;;;;;;;6133464;23;20407;-88
2024/04/05 02:08:36;;;;;;;5.53;1.90;;;;;;;;;;6142610;23;20411;-88
2024/04/05 02:11:20;;;;;;;4.93;1.80;;;;;;;;;;6143051;23;20472;-89
2024/04/05 02:13:58;;;;;;;6.60;2.00;;;;;;;;;;6146610;23;20449;-87
2024/04/05 02:16:59;;;;;;;6.13;1.90;;;;;;;;;;6148307;23;20924;-88
2024/04/05 02:19:55;;;;;;;3.30;1.83;;;;;;;;;;6146340;23;20421;-86
2024/04/05 02:22:33;;;;;;;3.90;3.10;;;;;;;;;;6119178;23;20453;-89
2024/04/05 02:27:56;;;;;;;3.23;1.73;;;;;;;;;;6185769;23;20452;-87
2024/04/05 02:33:38;;;;;;;6.67;2.63;;;;;;;;;;6086685;23;20413;-91
2024/04/05 02:36:11;;;;;;;4.33;2.10;;;;;;;;;;6141364;23;20394;-87
2024/04/05 02:42:28;;;;;;;5.17;1.77;;;;;;;;;;6211799;23;20452;-91
2024/04/05 02:48:06;;;;;;;4.50;2.13;;;;;;;;;;6170193;23;20551;-90
2024/04/05 02:54:38;;;;;;;7.07;2.10;;;;;;;;;;6136665;23;20375;-87
2024/04/05 02:57:17;;;;;;;5.10;2.00;;;;;;;;;;6081547;23;20829;-88
2024/04/05 03:00:03;;;;;;;;;;;;;;;;;;;;;
2024/04/05 03:19:58;;;;;;;4.23;2.20;;;;;;;;;;6064461;23;20402;-87
2024/04/05 03:22:57;;;;;;;7.43;2.50;;;;;;;;;;6133077;23;20447;-91
2024/04/05 03:36:15;;;;;;;3.93;2.03;;;;;;;;;;6153382;23;20418;-90
2024/04/05 03:38:48;;;;;;;3.30;1.97;;;;;;;;;;6127412;23;20475;-90
2024/04/05 03:46:43;;;;;;;5.00;2.43;;;;;;;;;;6202618;23;20465;-89
2024/04/05 03:52:36;;;;;;;4.47;1.90;;;;;;;;;;6167130;23;20422;-88
2024/04/05 03:55:12;;;;;;;4.90;2.40;;;;;;;;;;6146358;23;20406;-87
2024/04/05 03:58:05;;;;;;;8.03;1.90;;;;;;;;;;6145594;23;20778;-89
2024/04/05 04:00:36;;;;;;;6.50;1.93;;;;;;;;;;6143149;23;20413;-88
2024/04/05 04:03:23;;;;;;;5.40;1.90;;;;;;;;;;6142429;23;20450;-90
2024/04/05 04:05:58;;;;;;;5.30;2.03;;;;;;;;;;6138603;23;20531;-88
2024/04/05 04:09:01;;;;;;;6.60;2.20;;;;;;;;;;6160388;23;20910;-88
2024/04/05 04:11:37;;;;;;;5.70;2.57;;;;;;;;;;6150539;23;20422;-86
2024/04/05 04:14:32;;;;;;;;;;;;;;;;;;;;;
2024/04/05 04:16:59;;;;;;;5.93;2.20;;;;;;;;;;6169274;23;20406;-87
2024/04/05 04:19:47;;;;;;;3.43;2.37;;;;;;;;;;6143284;23;20402;-88
2024/04/05 04:25:52;;;;;;;3.80;1.97;;;;;;;;;;6102602;23;20392;-90
2024/04/05 04:28:51;;;;;;;5.43;2.07;;;;;;;;;;6066399;23;20389;-87
2024/04/05 04:31:51;;;;;;;4.73;1.97;;;;;;;;;;6133990;23;20419;-87
2024/04/05 04:34:44;;;;;;;5.30;2.03;;;;;;;;;;6143182;23;20394;-88
2024/04/05 04:37:43;;;;;;;4.73;3.30;;;;;;;;;;6141170;23;20402;-89
2024/04/05 04:43:59;;;;;;;5.03;2.87;;;;;;;;;;6102401;23;20429;-87
2024/04/05 04:46:57;;;;;;;3.50;2.33;;;;;;;;;;6082417;23;20424;-89
2024/04/05 04:50:00;;;;;;;5.13;2.43;;;;;;;;;;6130306;23;20748;-87
2024/04/05 04:52:37;;;;;;;3.00;1.97;;;;;;;;;;6134292;23;20396;-90
2024/04/05 04:55:14;;;;;;;6.33;2.00;;;;;;;;;;6155970;23;20406;-89
2024/04/05 04:58:35;;;;;;;4.80;2.20;;;;;;;;;;6177663;23;20392;-88
2024/04/05 05:01:07;;;;;;;3.30;2.00;;;;;;;;;;6152163;23;20437;-90
2024/04/05 05:03:48;;;;;;;5.00;2.30;;;;;;;;;;6153560;23;20528;-88
2024/04/05 05:06:31;;;;;;;6.53;2.67;;;;;;;;;;6156417;23;20401;-88
2024/04/05 05:09:50;;;;;;;7.77;2.93;;;;;;;;;;6173367;23;20497;-87
2024/04/05 05:12:53;;;;;;;5.50;2.50;;;;;;;;;;6149892;23;20470;-87
2024/04/05 05:18:28;;;;;;;3.67;2.53;;;;;;;;;;6165085;23;20394;-90
2024/04/05 05:21:18;;;;;;;5.37;2.43;;;;;;;;;;6087760;23;20433;-88
2024/04/05 05:27:46;;;;;;;4.73;3.07;;;;;;;;;;6073731;23;20893;-86
2024/04/05 05:30:55;;;;;;;4.53;3.40;;;;;;;;;;6048420;23;20422;-87
2024/04/05 05:33:29;;;;;;;8.27;2.77;;;;;;;;;;6026066;23;20406;-87
2024/04/05 05:39:54;;;;;;;6.30;2.20;;;;;;;;;;6079112;23;20401;-87
2024/04/05 05:46:01;;;;;;;6.27;2.17;;;;;;;;;;6068819;23;20428;-88
2024/04/05 05:48:58;;;;;;;4.20;2.20;;;;;;;;;;6026795;23;20405;-89
2024/04/05 05:54:19;;;;;;;4.47;2.37;;;;;;;;;;6182069;23;20486;-93
2024/04/05 05:57:07;;;;;;;6.70;2.80;;;;;;;;;;6155291;23;20515;-89
2024/04/05 06:03:02;;;;;;;2.63;2.40;;;;;;;;;;6128061;23;20511;-91
2024/04/05 06:05:36;;;;;;;7.63;2.23;;;;;;;;;;6032535;23;20413;-88
2024/04/05 06:08:11;;;;;;;6.33;2.70;;;;;;;;;;6071169;23;20646;-87
2024/04/05 06:13:52;;;;;;;;;;;;;;;;;;;;;
2024/04/05 06:16:53;;;;;;;5.27;2.70;;;;;;;;;;6055441;23;20424;-87
2024/04/05 06:19:39;;;;;;;5.97;2.50;;;;;;;;;;6092001;23;20387;-88
2024/04/05 06:22:21;;;;;;;5.53;2.40;;;;;;;;;;6102055;23;20435;-86
2024/04/05 06:25:23;;;;;;;3.77;2.30;;;;;;;;;;6115115;23;20391;-87
2024/04/05 06:28:15;;;;;;;5.87;2.30;;;;;;;;;;6118046;23;20379;-87
2024/04/05 06:34:02;;;;;;;5.37;2.47;;;;;;;;;;6184042;23;20409;-89
2024/04/05 06:36:55;;;;;;;4.63;2.40;;;;;;;;;;6149667;23;20516;-89
2024/04/05 06:39:28;;;;;;;4.33;2.37;;;;;;;;;;6162001;23;20550;-92
2024/04/05 06:45:28;;;;;;;7.43;2.57;;;;;;;;;;6150875;23;20857;-89
2024/04/05 06:54:15;;;;;;;;;;;;;;;;;;;;;
2024/04/05 07:00:29;;;;;;;4.47;2.27;;;;;;;;;;6169182;23;20406;-87
2024/04/05 07:03:42;;;;;;;5.57;2.37;;;;;;;;;;6197934;23;20429;-89
2024/04/05 07:06:19;;;;;;;3.83;2.40;;;;;;;;;;6197396;23;20468;-88
2024/04/05 07:09:09;;;;;;;3.23;2.03;;;;;;;;;;6166719;23;20398;-87
2024/04/05 07:20:42;;;;;;;4.00;2.67;;;;;;;;;;6179213;23;20382;-89
2024/04/05 07:23:46;;;;;;;6.67;2.60;;;;;;;;;;6152182;23;20431;-89
2024/04/05 07:26:19;;;;;;;14.23;5.13;;;;;;;;;;6147671;23;20469;-87
2024/04/05 07:29:28;;;;;;;;;;;;;;;;;;;;;
2024/04/05 07:35:50;;;;;;;6.43;3.90;;;;;;;;;;6181351;23;20506;-88
2024/04/05 07:42:05;;;;;;;4.00;2.17;;;;;;;;;;6059869;23;20813;-87
2024/04/05 07:45:07;;;;;;;;;;;;;;;;;;;;;
2024/04/05 08:07:35;;;;;;;4.27;2.20;;;;;;;;;;6168388;23;20466;-89
2024/04/05 08:10:46;;;;;;;4.30;1.90;;;;;;;;;;6145819;23;20407;-89
2024/04/05 08:17:02;;;;;;;5.60;2.00;;;;;;;;;;6156394;23;20478;-89
2024/04/05 08:23:22;;;;;;;3.80;2.00;;;;;;;;;;6075879;23;20464;-89
2024/04/05 08:25:58;;;;;;;8.87;2.43;;;;;;;;;;6055965;23;20404;-89
2024/04/05 08:31:57;;;;;;;4.27;2.80;;;;;;;;;;6133913;23;20423;-88
2024/04/05 08:35:22;;;;;;;7.30;2.10;;;;;;;;;;6168596;23;20432;-87
2024/04/05 08:38:11;;;;;;;3.80;1.50;;;;;;;;;;6103480;23;20414;-87
2024/04/05 08:41:56;;;;;;;;;;;;;;;;;;;;;
2024/04/05 08:44:04;;;;;;;3.27;1.63;;;;;;;;;;6079275;23;20407;-88
2024/04/05 08:47:03;;;;;;;2.10;1.80;;;;;;;;;;6103709;23;20403;-88
2024/04/05 08:50:05;;;;;;;5.90;2.40;;;;;;;;;;6093068;23;20402;-88
2024/04/05 08:56:52;;;;;;;3.03;1.50;;;;;;;;;;6168337;23;20752;-88
2024/04/05 08:59:55;;;;;;;4.67;1.87;;;;;;;;;;6161873;23;20391;-88
2024/04/05 09:02:39;;;;;;;1.40;0.80;;;;;;;;;;6115254;23;20450;-88
2024/04/05 09:05:25;;;;;;;4.77;2.10;;;;;;;;;;6117110;23;20421;-87
2024/04/05 09:08:37;;;;;;;3.63;2.47;;;;;;;;;;6135560;23;20751;-89
2024/04/05 09:11:31;;;;;;;2.47;1.60;;;;;;;;;;6117095;23;20434;-87
2024/04/05 09:14:39;;;;;;;2.50;1.77;;;;;;;;;;6075122;23;20409;-88
2024/04/05 09:17:29;;;;;;;4.30;2.10;;;;;;;;;;6119610;23;20413;-88
2024/04/05 09:20:34;;;;;;;4.47;2.00;;;;;;;;;;6114638;23;20407;-89
2024/04/05 09:23:16;;;;;;;3.20;1.60;;;;;;;;;;6056276;23;20462;-89
2024/04/05 09:26:02;;;;;;;5.57;1.57;;;;;;;;;;6145558;23;20387;-90
2024/04/05 09:28:35;;;;;;;2.40;2.10;;;;;;;;;;6133800;23;20479;-87
2024/04/05 09:31:20;;;;;;;1.37;1.27;;;;;;;;;;6123747;23;20534;-87
2024/04/05 09:34:14;;;;;;;6.97;1.73;;;;;;;;;;6182926;23;20393;-91
2024/04/05 09:36:50;;;;;;;3.67;1.40;;;;;;;;;;6130596;23;20471;-87
2024/04/05 09:39:27;;;;;;;4.73;1.70;;;;;;;;;;6120861;23;20417;-88
2024/04/05 09:42:10;;;;;;;7.00;2.20;;;;;;;;;;6107680;23;20494;-88
2024/04/05 09:48:32;;;;;;;2.20;1.93;;;;;;;;;;6139746;23;20402;-88
2024/04/05 09:51:19;;;;;;;2.87;1.60;;;;;;;;;;6116244;23;20928;-87
2024/04/05 09:54:04;;;;;;;3.20;1.73;;;;;;;;;;6114813;23;20413;-87
2024/04/05 09:57:03;;;;;;;3.03;1.70;;;;;;;;;;6099588;23;20750;-89
2024/04/05 09:59:53;;;;;;;3.37;1.67;;;;;;;;;;6108494;23;20743;-88
2024/04/05 10:02:59;;;;;;;3.17;2.10;;;;;;;;;;6141331;23;20450;-92
2024/04/05 10:05:32;;;;;;;2.63;1.67;;;;;;;;;;6142420;23;20414;-88
2024/04/05 10:08:24;;;;;;;3.73;1.53;;;;;;;;;;6130987;23;20499;-88
2024/04/05 10:11:17;;;;;;;3.20;1.73;;;;;;;;;;6130176;23;20486;-89
2024/04/05 10:13:53;;;;;;;7.30;1.90;;;;;;;;;;6124843;23;20467;-92
2024/04/05 10:16:51;;;;;;;5.00;2.27;;;;;;;;;;6078105;23;20399;-87
2024/04/05 10:20:03;;;;;;;;;;;;;;;;;;;;;
2024/04/05 10:23:03;;;;;;;4.03;2.00;;;;;;;;;;6141845;23;20442;-87
2024/04/05 10:26:11;;;;;;;2.90;1.60;;;;;;;;;;6111482;23;20409;-86
2024/04/05 10:28:56;;;;;;;6.20;2.60;;;;;;;;;;6069020;23;20730;-88
2024/04/05 10:31:54;;;;;;;2.00;1.70;;;;;;;;;;6074760;23;20420;-88
2024/04/05 10:34:58;;;;;;;3.07;2.00;;;;;;;;;;6134938;23;20387;-88
2024/04/05 10:37:56;;;;;;;2.27;1.90;;;;;;;;;;6106404;23;20456;-86
2024/04/05 10:41:12;;;;;;;2.57;1.80;;;;;;;;;;6008172;23;20454;-85
2024/04/05 10:44:16;;;;;;;4.53;2.40;;;;;;;;;;5967711;23;20447;-90
2024/04/05 10:53:05;;;;;;;3.00;1.60;;;;;;;;;;6144363;23;20471;-89
2024/04/05 10:59:23;;;;;;;7.17;2.50;;;;;;;;;;6051239;23;20466;-89
2024/04/05 11:02:10;;;;;;;8.17;1.87;;;;;;;;;;6029456;23;20455;-90
2024/04/05 11:19:04;;;;;;;2.93;1.90;;;;;;;;;;5891733;23;20407;-89
2024/04/05 11:21:46;;;;;;;4.10;1.50;;;;;;;;;;6043446;23;20481;-86
2024/04/05 11:35:03;;;;;;;3.63;1.10;;;;;;;;;;6031376;23;20378;-91
2024/04/05 11:38:11;;;;;;;2.70;1.37;;;;;;;;;;5978395;23;20468;-90
2024/04/05 11:41:52;;;;;;;;;;;;;;;;;;;;;
2024/04/05 12:02:20;;;;;;;1.83;1.60;;;;;;;;;;6119119;23;20461;-89
2024/04/05 12:12:26;;;;;;;;;;;;;;;;;;;;;
2024/04/05 14:19:29;;;;;;;1.27;0.90;;;;;;;;;;6068028;23;20406;-87
2024/04/05 16:48:07;;;;;;;1.70;1.50;;;;;;;;;;5897260;24;21188;-90
2024/04/05 17:04:34;;;;;;;2.40;1.60;;;;;;;;;;5983279;23;20460;-89
2024/04/05 17:15:03;;;;;;;3.17;1.80;;;;;;;;;;6099955;23;20408;-87
2024/04/05 17:24:50;;;;;;;2.27;1.57;;;;;;;;;;5941009;23;20504;-88
2024/04/05 17:27:32;;;;;;;3.57;1.43;;;;;;;;;;5928423;24;21534;-89
2024/04/05 17:44:14;;;;;;;2.10;1.80;;;;;;;;;;6178789;23;20504;-88
2024/04/05 17:50:47;;;;;;;1.67;1.50;;;;;;;;;;6161589;23;20385;-86
2024/04/05 18:04:19;;;;;;;2.10;1.60;;;;;;;;;;5898860;24;20470;-90
2024/04/05 18:07:44;;;;;;;;;;;;;;;;;;;;;
2024/04/05 18:22:37;;;;;;;3.10;1.90;;;;;;;;;;6144330;23;20549;-89
2024/04/05 18:32:17;;;;;;;1.90;1.60;;;;;;;;;;6000426;23;20434;-88
2024/04/05 18:35:12;;;;;;;2.30;1.70;;;;;;;;;;6053621;23;20456;-87
2024/04/05 18:45:03;;;;;;;;;;;;;;;;;;;;;
2024/04/05 18:48:20;;;;;;;2.10;1.23;;;;;;;;;;5986812;23;20414;-90
2024/04/05 18:51:54;;;;;;;1.43;1.10;;;;;;;;;;6055978;23;20408;-88
2024/04/05 19:01:17;;;;;;;4.50;1.50;;;;;;;;;;5992124;23;20475;-91
2024/04/05 19:15:24;;;;;;;3.03;1.50;;;;;;;;;;5927647;24;20406;-89
2024/04/05 19:18:39;;;;;;;;;;;;;;;;;;;;;
2024/04/05 19:28:12;;;;;;;3.10;1.30;;;;;;;;;;5919705;24;20401;-91
2024/04/05 19:59:22;;;;;;;1.50;1.30;;;;;;;;;;6166459;23;20514;-89
2024/04/05 20:02:16;;;;;;;4.40;1.50;;;;;;;;;;6101184;23;20529;-87
2024/04/05 20:05:09;;;;;;;1.07;1.07;;;;;;;;;;6103159;23;20809;-90
2024/04/05 20:08:44;;;;;;;5.13;1.70;;;;;;;;;;6058804;23;20402;-87
2024/04/05 20:24:20;;;;;;;1.30;1.20;;;;;;;;;;6129346;23;20459;-87
2024/04/05 20:27:19;;;;;;;1.47;1.37;;;;;;;;;;6132341;23;20477;-89
2024/04/05 21:06:55;;;;;;;1.90;1.20;;;;;;;;;;6156189;23;20893;-88
2024/04/05 21:10:03;;;;;;;2.80;1.50;;;;;;;;;;6144138;23;20403;-88
2024/04/05 21:31:01;;;;;;;3.27;1.30;;;;;;;;;;6130659;23;20410;-89
2024/04/05 21:37:10;;;;;;;4.80;1.30;;;;;;;;;;6001764;23;20401;-91
2024/04/05 21:45:40;;;;;;;1.43;1.10;;;;;;;;;;6160416;23;20501;-87
2024/04/05 21:51:51;;;;;;;1.60;1.10;;;;;;;;;;6132677;23;21148;-89
2024/04/05 21:55:00;;;;;;;1.40;1.30;;;;;;;;;;6134005;23;20403;-88
2024/04/05 21:58:06;;;;;;;2.17;1.13;;;;;;;;;;6022362;23;20725;-88
2024/04/05 22:00:45;;;;;;;1.83;1.20;;;;;;;;;;6024185;23;20817;-89
2024/04/05 22:03:35;;;;;;;2.00;1.33;;;;;;;;;;6015493;23;20450;-86
2024/04/05 22:06:12;;;;;;;2.60;1.40;;;;;;;;;;5992436;23;20908;-86
2024/04/05 22:09:35;;;;;;;2.47;1.53;;;;;;;;;;5990034;23;20415;-87
2024/04/05 22:12:22;;;;;;;2.43;1.17;;;;;;;;;;6012545;23;20432;-87
2024/04/05 22:15:27;;;;;;;1.00;1.00;;;;;;;;;;6041479;23;20417;-88
2024/04/05 22:18:36;;;;;;;1.07;1.00;;;;;;;;;;5981165;23;20475;-87
2024/04/05 22:21:17;;;;;;;1.40;1.30;;;;;;;;;;6013120;23;20704;-89
2024/04/05 22:23:52;;;;;;;1.93;1.07;;;;;;;;;;6003408;23;20442;-87
2024/04/05 22:26:37;;;;;;;2.07;1.60;;;;;;;;;;6018194;23;20421;-90
2024/04/05 22:29:41;;;;;;;;;;;;;;;;;;;;;
2024/04/05 22:36:13;;;;;;;1.23;1.13;;;;;;;;;;6060011;23;20417;-88
2024/04/05 22:42:11;;;;;;;1.43;1.10;;;;;;;;;;6109239;23;20424;-87
2024/04/05 22:45:03;;;;;;;0.80;0.80;;;;;;;;;;6112905;23;20747;-87
2024/04/05 22:47:49;;;;;;;1.33;1.23;;;;;;;;;;6104676;23;20449;-86
2024/04/05 22:50:44;;;;;;;1.47;1.30;;;;;;;;;;6109315;23;20823;-90
2024/04/05 23:31:31;;;;;;;2.60;1.40;;;;;;;;;;6176136;23;20441;-89
2024/04/05 23:34:15;;;;;;;1.93;1.83;;;;;;;;;;6118312;23;20418;-89
2024/04/05 23:37:14;;;;;;;;;;;;;;;;;;;;;
2024/04/05 23:39:50;;;;;;;1.50;1.40;;;;;;;;;;6118991;23;20415;-89
2024/04/05 23:42:50;;;;;;;1.80;1.70;;;;;;;;;;6065887;23;20489;-87
2024/04/05 23:45:42;;;;;;;3.80;1.83;;;;;;;;;;6049024;23;20394;-90
2024/04/05 23:49:00;;;;;;;3.73;1.90;;;;;;;;;;5981564;23;20493;-89
2024/04/05 23:57:52;;;;;;;1.90;1.53;;;;;;;;;;6165771;23;20596;-90
